sensor_id;sensor_type;location;lat;lon;timestamp;pressure;altitude;pressure_sealevel;temperature;humidity
31346;BME280;21711;49.708;18.568;2023-02-01T00:01:09;96891.47;;;2.34;100.00
31346;BME280;21711;49.708;18.568;2023-02-01T00:03:36;96900.97;;;2.40;100.00
31346;BME280;21711;49.708;18.568;2023-02-01T00:06:04;96907.22;;;2.39;100.00
31346;BME280;21711;49.708;18.568;2023-02-01T00:08:31;96906.75;;;2.42;100.00
31346;BME280;21711;49.708;18.568;2023-02-01T00:11:04;96898.59;;;2.39;100.00
31346;BME280;21711;49.708;18.568;2023-02-01T00:13:34;96902.56;;;2.29;100.00
31346;BME280;21711;49.708;18.568;2023-02-01T00:16:10;96904.81;;;2.49;100.00
31346;BME280;21711;49.708;18.568;2023-02-01T00:18:39;96902.22;;;2.38;100.00
31346;BME280;21711;49.708;18.568;2023-02-01T00:21:06;96904.28;;;2.47;100.00
31346;BME280;21711;49.708;18.568;2023-02-01T00:23:37;96897.56;;;2.40;100.00
31346;BME280;21711;49.708;18.568;2023-02-01T00:26:10;96897.69;;;2.45;100.00
31346;BME280;21711;49.708;18.568;2023-02-01T00:28:40;96890.88;;;2.44;100.00
31346;BME280;21711;49.708;18.568;2023-02-01T00:31:08;96887.91;;;2.52;100.00
31346;BME280;21711;49.708;18.568;2023-02-01T00:33:36;96890.63;;;2.45;100.00
31346;BME280;21711;49.708;18.568;2023-02-01T00:36:07;96888.47;;;2.42;100.00
31346;BME280;21711;49.708;18.568;2023-02-01T00:38:37;96886.34;;;2.51;100.00
31346;BME280;21711;49.708;18.568;2023-02-01T00:41:17;96890.41;;;2.47;100.00
31346;BME280;21711;49.708;18.568;2023-02-01T00:43:45;96890.31;;;2.54;100.00
31346;BME280;21711;49.708;18.568;2023-02-01T00:46:14;96887.09;;;2.63;100.00
31346;BME280;21711;49.708;18.568;2023-02-01T00:48:42;96876.66;;;2.52;100.00
31346;BME280;21711;49.708;18.568;2023-02-01T00:51:18;96884.41;;;2.46;100.00
31346;BME280;21711;49.708;18.568;2023-02-01T00:53:46;96883.47;;;2.65;100.00
31346;BME280;21711;49.708;18.568;2023-02-01T00:56:13;96886.31;;;2.63;100.00
31346;BME280;21711;49.708;18.568;2023-02-01T00:58:41;96888.47;;;2.54;100.00
31346;BME280;21711;49.708;18.568;2023-02-01T01:03:56;96891.72;;;2.73;100.00
31346;BME280;21711;49.708;18.568;2023-02-01T01:06:27;96885.94;;;2.83;100.00
31346;BME280;21711;49.708;18.568;2023-02-01T01:08:57;96898.53;;;2.74;100.00
31346;BME280;21711;49.708;18.568;2023-02-01T01:11:28;96884.47;;;2.63;100.00
31346;BME280;21711;49.708;18.568;2023-02-01T01:13:58;96873.41;;;2.44;100.00
31346;BME280;21711;49.708;18.568;2023-02-01T01:16:28;96883.94;;;2.49;100.00
31346;BME280;21711;49.708;18.568;2023-02-01T01:18:57;96897.44;;;2.46;100.00
31346;BME280;21711;49.708;18.568;2023-02-01T01:21:26;96890.50;;;2.64;100.00
31346;BME280;21711;49.708;18.568;2023-02-01T01:23:53;96884.94;;;2.72;100.00
31346;BME280;21711;49.708;18.568;2023-02-01T01:26:24;96884.25;;;2.65;100.00
31346;BME280;21711;49.708;18.568;2023-02-01T01:28:54;96877.03;;;2.55;100.00
31346;BME280;21711;49.708;18.568;2023-02-01T01:31:22;96881.56;;;2.48;100.00
31346;BME280;21711;49.708;18.568;2023-02-01T01:33:53;96871.59;;;2.45;100.00
31346;BME280;21711;49.708;18.568;2023-02-01T01:36:22;96877.69;;;2.50;100.00
31346;BME280;21711;49.708;18.568;2023-02-01T01:38:50;96876.34;;;2.36;100.00
31346;BME280;21711;49.708;18.568;2023-02-01T01:41:28;96890.88;;;2.44;100.00
31346;BME280;21711;49.708;18.568;2023-02-01T01:44:04;96895.88;;;2.21;100.00
31346;BME280;21711;49.708;18.568;2023-02-01T01:46:36;96895.97;;;2.27;100.00
31346;BME280;21711;49.708;18.568;2023-02-01T01:49:19;96885.31;;;2.16;100.00
31346;BME280;21711;49.708;18.568;2023-02-01T01:51:57;96897.13;;;2.07;100.00
31346;BME280;21711;49.708;18.568;2023-02-01T01:54:32;96902.72;;;1.68;100.00
31346;BME280;21711;49.708;18.568;2023-02-01T01:57:12;96894.81;;;1.75;100.00
31346;BME280;21711;49.708;18.568;2023-02-01T01:59:46;96900.72;;;1.70;100.00
31346;BME280;21711;49.708;18.568;2023-02-01T02:02:16;96886.50;;;1.54;100.00
31346;BME280;21711;49.708;18.568;2023-02-01T02:04:46;96882.66;;;1.56;100.00
31346;BME280;21711;49.708;18.568;2023-02-01T02:07:30;96878.25;;;1.57;100.00
31346;BME280;21711;49.708;18.568;2023-02-01T02:09:58;96877.19;;;1.46;100.00
31346;BME280;21711;49.708;18.568;2023-02-01T02:12:28;96884.56;;;1.49;100.00
31346;BME280;21711;49.708;18.568;2023-02-01T02:14:55;96879.22;;;1.44;100.00
31346;BME280;21711;49.708;18.568;2023-02-01T02:17:36;96872.22;;;1.44;100.00
31346;BME280;21711;49.708;18.568;2023-02-01T02:32:39;96880.69;;;1.52;100.00
31346;BME280;21711;49.708;18.568;2023-02-01T02:35:38;96879.03;;;1.57;100.00
31346;BME280;21711;49.708;18.568;2023-02-01T02:38:29;96880.28;;;1.67;100.00
31346;BME280;21711;49.708;18.568;2023-02-01T02:44:24;96898.84;;;1.58;100.00
31346;BME280;21711;49.708;18.568;2023-02-01T02:50:24;96888.13;;;1.67;100.00
31346;BME280;21711;49.708;18.568;2023-02-01T02:53:30;96896.41;;;1.76;100.00
31346;BME280;21711;49.708;18.568;2023-02-01T02:56:21;96915.78;;;1.80;100.00
31346;BME280;21711;49.708;18.568;2023-02-01T02:59:11;96931.34;;;1.87;100.00
31346;BME280;21711;49.708;18.568;2023-02-01T03:01:58;96945.63;;;1.96;100.00
31346;BME280;21711;49.708;18.568;2023-02-01T03:04:44;96937.34;;;1.75;100.00
31346;BME280;21711;49.708;18.568;2023-02-01T03:10:00;96931.31;;;1.75;100.00
31346;BME280;21711;49.708;18.568;2023-02-01T03:12:37;96930.66;;;1.79;100.00
31346;BME280;21711;49.708;18.568;2023-02-01T03:18:50;96930.13;;;2.01;100.00
31346;BME280;21711;49.708;18.568;2023-02-01T03:21:41;96931.56;;;1.85;100.00
31346;BME280;21711;49.708;18.568;2023-02-01T03:24:45;96926.03;;;1.93;100.00
31346;BME280;21711;49.708;18.568;2023-02-01T03:27:18;96922.16;;;1.96;100.00
31346;BME280;21711;49.708;18.568;2023-02-01T03:32:20;96917.78;;;2.08;100.00
31346;BME280;21711;49.708;18.568;2023-02-01T03:34:48;96918.31;;;1.99;100.00
31346;BME280;21711;49.708;18.568;2023-02-01T03:37:27;96920.59;;;1.95;100.00
31346;BME280;21711;49.708;18.568;2023-02-01T03:40:06;96924.13;;;2.13;100.00
31346;BME280;21711;49.708;18.568;2023-02-01T03:42:43;96928.00;;;2.22;100.00
31346;BME280;21711;49.708;18.568;2023-02-01T03:45:28;96929.78;;;2.09;100.00
31346;BME280;21711;49.708;18.568;2023-02-01T03:48:00;96920.72;;;2.12;100.00
31346;BME280;21711;49.708;18.568;2023-02-01T03:50:30;96920.91;;;1.99;100.00
31346;BME280;21711;49.708;18.568;2023-02-01T03:53:09;96925.16;;;2.12;100.00
31346;BME280;21711;49.708;18.568;2023-02-01T03:55:38;96930.81;;;2.08;100.00
31346;BME280;21711;49.708;18.568;2023-02-01T03:58:21;96938.97;;;2.24;100.00
31346;BME280;21711;49.708;18.568;2023-02-01T04:00:54;96936.25;;;2.19;100.00
31346;BME280;21711;49.708;18.568;2023-02-01T04:03:22;96941.69;;;2.17;100.00
31346;BME280;21711;49.708;18.568;2023-02-01T04:05:51;96944.31;;;2.17;100.00
31346;BME280;21711;49.708;18.568;2023-02-01T04:08:22;96938.63;;;2.08;100.00
31346;BME280;21711;49.708;18.568;2023-02-01T04:10:50;96930.38;;;2.12;100.00
31346;BME280;21711;49.708;18.568;2023-02-01T04:13:17;96935.00;;;1.97;100.00
31346;BME280;21711;49.708;18.568;2023-02-01T04:15:44;96939.09;;;2.05;100.00
31346;BME280;21711;49.708;18.568;2023-02-01T04:18:13;96940.19;;;1.86;100.00
31346;BME280;21711;49.708;18.568;2023-02-01T04:20:40;96940.63;;;1.82;100.00
31346;BME280;21711;49.708;18.568;2023-02-01T04:23:09;96945.72;;;1.77;100.00
31346;BME280;21711;49.708;18.568;2023-02-01T04:25:36;96942.84;;;1.67;100.00
31346;BME280;21711;49.708;18.568;2023-02-01T04:28:06;96944.56;;;1.73;100.00
31346;BME280;21711;49.708;18.568;2023-02-01T04:30:34;96942.81;;;1.55;100.00
31346;BME280;21711;49.708;18.568;2023-02-01T04:33:01;96940.84;;;1.69;100.00
31346;BME280;21711;49.708;18.568;2023-02-01T04:35:32;96941.16;;;1.61;100.00
31346;BME280;21711;49.708;18.568;2023-02-01T04:38:00;96948.22;;;1.84;100.00
31346;BME280;21711;49.708;18.568;2023-02-01T04:40:27;96954.34;;;1.78;100.00
31346;BME280;21711;49.708;18.568;2023-02-01T04:42:54;96952.72;;;1.65;100.00
31346;BME280;21711;49.708;18.568;2023-02-01T04:45:21;96957.25;;;1.69;100.00
31346;BME280;21711;49.708;18.568;2023-02-01T04:47:48;96952.75;;;1.77;100.00
31346;BME280;21711;49.708;18.568;2023-02-01T04:50:16;96954.00;;;1.74;100.00
31346;BME280;21711;49.708;18.568;2023-02-01T04:52:43;96952.53;;;1.78;100.00
31346;BME280;21711;49.708;18.568;2023-02-01T04:55:12;96966.13;;;1.80;100.00
31346;BME280;21711;49.708;18.568;2023-02-01T04:57:40;96957.50;;;1.80;100.00
31346;BME280;21711;49.708;18.568;2023-02-01T05:00:09;96953.41;;;1.72;100.00
31346;BME280;21711;49.708;18.568;2023-02-01T05:02:37;96958.00;;;1.89;100.00
31346;BME280;21711;49.708;18.568;2023-02-01T05:05:05;96956.50;;;1.69;100.00
31346;BME280;21711;49.708;18.568;2023-02-01T05:07:32;96962.72;;;1.80;100.00
31346;BME280;21711;49.708;18.568;2023-02-01T05:10:00;96951.31;;;1.93;100.00
31346;BME280;21711;49.708;18.568;2023-02-01T05:12:27;96953.16;;;2.04;100.00
31346;BME280;21711;49.708;18.568;2023-02-01T05:15:13;96945.88;;;1.94;100.00
31346;BME280;21711;49.708;18.568;2023-02-01T05:17:40;96952.22;;;1.99;100.00
31346;BME280;21711;49.708;18.568;2023-02-01T05:20:09;96946.09;;;1.93;100.00
31346;BME280;21711;49.708;18.568;2023-02-01T05:22:37;96945.44;;;1.97;100.00
31346;BME280;21711;49.708;18.568;2023-02-01T05:25:04;96951.97;;;1.88;100.00
31346;BME280;21711;49.708;18.568;2023-02-01T05:27:34;96936.56;;;1.87;100.00
31346;BME280;21711;49.708;18.568;2023-02-01T05:30:07;96935.19;;;1.84;100.00
31346;BME280;21711;49.708;18.568;2023-02-01T05:32:35;96935.97;;;1.73;100.00
31346;BME280;21711;49.708;18.568;2023-02-01T05:35:03;96935.88;;;1.79;100.00
31346;BME280;21711;49.708;18.568;2023-02-01T05:37:30;96935.88;;;1.79;100.00
31346;BME280;21711;49.708;18.568;2023-02-01T05:39:57;96933.38;;;1.84;100.00
31346;BME280;21711;49.708;18.568;2023-02-01T05:42:25;96941.44;;;1.83;100.00
31346;BME280;21711;49.708;18.568;2023-02-01T05:44:52;96942.56;;;1.87;100.00
31346;BME280;21711;49.708;18.568;2023-02-01T05:47:19;96935.91;;;1.91;100.00
31346;BME280;21711;49.708;18.568;2023-02-01T05:49:47;96943.94;;;1.90;100.00
31346;BME280;21711;49.708;18.568;2023-02-01T05:52:14;96939.75;;;1.89;100.00
31346;BME280;21711;49.708;18.568;2023-02-01T05:54:46;96932.97;;;2.00;100.00
31346;BME280;21711;49.708;18.568;2023-02-01T05:57:15;96926.13;;;1.99;100.00
31346;BME280;21711;49.708;18.568;2023-02-01T05:59:42;96935.00;;;1.97;100.00
31346;BME280;21711;49.708;18.568;2023-02-01T06:02:12;96934.78;;;2.11;100.00
31346;BME280;21711;49.708;18.568;2023-02-01T06:04:39;96929.56;;;1.99;100.00
31346;BME280;21711;49.708;18.568;2023-02-01T06:07:08;96929.22;;;2.07;100.00
31346;BME280;21711;49.708;18.568;2023-02-01T06:09:37;96937.28;;;2.06;100.00
31346;BME280;21711;49.708;18.568;2023-02-01T06:12:05;96931.94;;;2.01;100.00
31346;BME280;21711;49.708;18.568;2023-02-01T06:14:32;96931.13;;;2.00;100.00
31346;BME280;21711;49.708;18.568;2023-02-01T06:17:00;96933.09;;;2.17;100.00
31346;BME280;21711;49.708;18.568;2023-02-01T06:19:27;96924.56;;;2.09;100.00
31346;BME280;21711;49.708;18.568;2023-02-01T06:21:54;96935.81;;;2.10;100.00
31346;BME280;21711;49.708;18.568;2023-02-01T06:24:21;96935.59;;;2.12;100.00
31346;BME280;21711;49.708;18.568;2023-02-01T06:26:49;96937.28;;;2.06;100.00
31346;BME280;21711;49.708;18.568;2023-02-01T06:29:16;96943.16;;;2.13;100.00
31346;BME280;21711;49.708;18.568;2023-02-01T06:31:43;96935.78;;;1.98;100.00
31346;BME280;21711;49.708;18.568;2023-02-01T06:34:11;96939.09;;;2.05;100.00
31346;BME280;21711;49.708;18.568;2023-02-01T06:36:38;96937.28;;;2.06;100.00
31346;BME280;21711;49.708;18.568;2023-02-01T06:39:06;96940.44;;;2.08;100.00
31346;BME280;21711;49.708;18.568;2023-02-01T06:41:33;96937.97;;;2.25;100.00
31346;BME280;21711;49.708;18.568;2023-02-01T06:44:01;96938.53;;;2.27;100.00
31346;BME280;21711;49.708;18.568;2023-02-01T06:46:29;96938.19;;;2.12;100.00
31346;BME280;21711;49.708;18.568;2023-02-01T06:48:56;96945.78;;;2.13;100.00
31346;BME280;21711;49.708;18.568;2023-02-01T06:51:27;96936.81;;;2.09;100.00
31346;BME280;21711;49.708;18.568;2023-02-01T06:53:56;96941.03;;;2.10;100.00
31346;BME280;21711;49.708;18.568;2023-02-01T06:56:24;96942.59;;;2.11;100.00
31346;BME280;21711;49.708;18.568;2023-02-01T06:58:53;96938.63;;;2.08;100.00
31346;BME280;21711;49.708;18.568;2023-02-01T07:01:21;96930.47;;;2.05;100.00
31346;BME280;21711;49.708;18.568;2023-02-01T07:03:49;96925.59;;;2.20;100.00
31346;BME280;21711;49.708;18.568;2023-02-01T07:06:18;96920.06;;;2.17;100.00
31346;BME280;21711;49.708;18.568;2023-02-01T07:08:49;96911.41;;;2.16;100.00
31346;BME280;21711;49.708;18.568;2023-02-01T07:11:18;96919.34;;;2.33;100.00
31346;BME280;21711;49.708;18.568;2023-02-01T07:13:45;96911.53;;;2.21;100.00
31346;BME280;21711;49.708;18.568;2023-02-01T07:16:16;96916.63;;;2.28;100.00
31346;BME280;21711;49.708;18.568;2023-02-01T07:18:44;96922.88;;;2.39;100.00
31346;BME280;21711;49.708;18.568;2023-02-01T07:21:12;96918.22;;;2.41;100.00
31346;BME280;21711;49.708;18.568;2023-02-01T07:23:40;96917.78;;;2.32;100.00
31346;BME280;21711;49.708;18.568;2023-02-01T07:26:10;96920.59;;;2.31;100.00
31346;BME280;21711;49.708;18.568;2023-02-01T07:28:42;96926.84;;;2.30;100.00
31346;BME280;21711;49.708;18.568;2023-02-01T07:31:16;96921.53;;;2.48;100.00
31346;BME280;21711;49.708;18.568;2023-02-01T07:33:45;96925.38;;;2.58;100.00
31346;BME280;21711;49.708;18.568;2023-02-01T07:36:16;96924.56;;;2.45;100.00
31346;BME280;21711;49.708;18.568;2023-02-01T07:38:44;96919.47;;;2.39;100.00
31346;BME280;21711;49.708;18.568;2023-02-01T07:41:11;96919.44;;;2.62;100.00
31346;BME280;21711;49.708;18.568;2023-02-01T07:43:38;96919.09;;;2.71;100.00
31346;BME280;21711;49.708;18.568;2023-02-01T07:46:06;96917.94;;;2.79;100.00
31346;BME280;21711;49.708;18.568;2023-02-01T07:48:34;96913.06;;;2.70;100.00
31346;BME280;21711;49.708;18.568;2023-02-01T07:51:12;96915.53;;;2.89;100.00
31346;BME280;21711;49.708;18.568;2023-02-01T07:53:40;96912.38;;;2.87;100.00
31346;BME280;21711;49.708;18.568;2023-02-01T07:56:16;96907.56;;;2.96;100.00
31346;BME280;21711;49.708;18.568;2023-02-01T07:58:50;96918.59;;;2.98;100.00
31346;BME280;21711;49.708;18.568;2023-02-01T08:01:22;96916.53;;;3.00;100.00
31346;BME280;21711;49.708;18.568;2023-02-01T08:04:02;96920.38;;;3.09;100.00
31346;BME280;21711;49.708;18.568;2023-02-01T08:06:34;96925.03;;;3.07;100.00
31346;BME280;21711;49.708;18.568;2023-02-01T08:09:03;96927.66;;;3.07;100.00
31346;BME280;21711;49.708;18.568;2023-02-01T08:11:30;96925.00;;;3.19;100.00
31346;BME280;21711;49.708;18.568;2023-02-01T08:13:58;96923.94;;;3.32;100.00
31346;BME280;21711;49.708;18.568;2023-02-01T08:16:26;96934.03;;;3.40;100.00
31346;BME280;21711;49.708;18.568;2023-02-01T08:18:53;96926.78;;;3.31;100.00
31346;BME280;21711;49.708;18.568;2023-02-01T08:21:27;96923.16;;;3.20;100.00
31346;BME280;21711;49.708;18.568;2023-02-01T08:24:09;96920.47;;;3.14;100.00
31346;BME280;21711;49.708;18.568;2023-02-01T08:26:37;96917.94;;;3.20;100.00
31346;BME280;21711;49.708;18.568;2023-02-01T08:29:07;96917.25;;;3.24;100.00
31346;BME280;21711;49.708;18.568;2023-02-01T08:31:35;96922.91;;;3.33;100.00
31346;BME280;21711;49.708;18.568;2023-02-01T08:34:10;96909.59;;;3.35;100.00
31346;BME280;21711;49.708;18.568;2023-02-01T08:36:39;96911.03;;;3.42;100.00
31346;BME280;21711;49.708;18.568;2023-02-01T08:39:10;96907.00;;;3.35;100.00
31346;BME280;21711;49.708;18.568;2023-02-01T08:41:38;96903.81;;;3.33;100.00
31346;BME280;21711;49.708;18.568;2023-02-01T08:44:05;96908.94;;;3.27;100.00
31346;BME280;21711;49.708;18.568;2023-02-01T08:46:33;96908.25;;;3.32;100.00
31346;BME280;21711;49.708;18.568;2023-02-01T08:49:02;96908.88;;;3.39;100.00
31346;BME280;21711;49.708;18.568;2023-02-01T08:51:30;96912.75;;;3.37;100.00
31346;BME280;21711;49.708;18.568;2023-02-01T08:53:57;96908.47;;;3.31;100.00
31346;BME280;21711;49.708;18.568;2023-02-01T08:56:24;96911.41;;;3.05;100.00
31346;BME280;21711;49.708;18.568;2023-02-01T08:58:51;96915.00;;;3.16;100.00
31346;BME280;21711;49.708;18.568;2023-02-01T09:01:21;96911.69;;;3.21;100.00
31346;BME280;21711;49.708;18.568;2023-02-01T09:03:48;96909.06;;;3.33;100.00
31346;BME280;21711;49.708;18.568;2023-02-01T09:06:16;96899.00;;;3.41;100.00
31346;BME280;21711;49.708;18.568;2023-02-01T09:08:44;96901.00;;;3.22;100.00
31346;BME280;21711;49.708;18.568;2023-02-01T09:11:15;96899.56;;;3.14;100.00
31346;BME280;21711;49.708;18.568;2023-02-01T09:13:42;96904.38;;;3.35;100.00
31346;BME280;21711;49.708;18.568;2023-02-01T09:16:10;96898.03;;;3.31;100.00
31346;BME280;21711;49.708;18.568;2023-02-01T09:18:37;96890.69;;;3.45;100.00
31346;BME280;21711;49.708;18.568;2023-02-01T09:21:22;96898.47;;;3.27;100.00
31346;BME280;21711;49.708;18.568;2023-02-01T09:23:51;96892.00;;;3.30;100.00
31346;BME280;21711;49.708;18.568;2023-02-01T09:26:18;96881.41;;;3.37;100.00
31346;BME280;21711;49.708;18.568;2023-02-01T09:28:56;96894.66;;;3.47;100.00
31346;BME280;21711;49.708;18.568;2023-02-01T09:31:23;96898.53;;;3.45;100.00
31346;BME280;21711;49.708;18.568;2023-02-01T09:33:53;96894.91;;;3.63;100.00
31346;BME280;21711;49.708;18.568;2023-02-01T09:36:20;96889.38;;;3.59;100.00
31346;BME280;21711;49.708;18.568;2023-02-01T09:38:48;96885.31;;;3.51;100.00
31346;BME280;21711;49.708;18.568;2023-02-01T09:47:57;96887.53;;;3.60;100.00
31346;BME280;21711;49.708;18.568;2023-02-01T09:50:39;96878.38;;;3.28;100.00
31346;BME280;21711;49.708;18.568;2023-02-01T09:53:28;96870.06;;;3.31;100.00
31346;BME280;21711;49.708;18.568;2023-02-01T09:56:21;96874.69;;;3.58;100.00
31346;BME280;21711;49.708;18.568;2023-02-01T09:59:40;96867.22;;;3.33;100.00
31346;BME280;21711;49.708;18.568;2023-02-01T10:02:17;96871.72;;;3.20;100.00
31346;BME280;21711;49.708;18.568;2023-02-01T10:04:47;96867.88;;;3.40;100.00
31346;BME280;21711;49.708;18.568;2023-02-01T10:13:21;96873.41;;;3.44;100.00
31346;BME280;21711;49.708;18.568;2023-02-01T10:21:59;96854.34;;;3.60;100.00
31346;BME280;21711;49.708;18.568;2023-02-01T10:24:44;96840.78;;;3.80;100.00
31346;BME280;21711;49.708;18.568;2023-02-01T10:27:33;96848.56;;;3.92;100.00
31346;BME280;21711;49.708;18.568;2023-02-01T10:32:52;96833.72;;;3.81;100.00
31346;BME280;21711;49.708;18.568;2023-02-01T10:35:31;96835.88;;;3.84;100.00
31346;BME280;21711;49.708;18.568;2023-02-01T10:38:01;96830.00;;;3.77;100.00
31346;BME280;21711;49.708;18.568;2023-02-01T10:40:29;96832.75;;;3.87;100.00
31346;BME280;21711;49.708;18.568;2023-02-01T10:43:01;96832.59;;;3.94;100.00
31346;BME280;21711;49.708;18.568;2023-02-01T10:45:32;96826.78;;;4.09;100.00
31346;BME280;21711;49.708;18.568;2023-02-01T10:48:02;96836.06;;;4.17;100.00
31346;BME280;21711;49.708;18.568;2023-02-01T10:50:54;96823.59;;;4.24;100.00
31346;BME280;21711;49.708;18.568;2023-02-01T10:53:35;96817.06;;;4.04;100.00
31346;BME280;21711;49.708;18.568;2023-02-01T10:56:11;96823.22;;;4.15;100.00
31346;BME280;21711;49.708;18.568;2023-02-01T10:58:47;96819.94;;;4.25;100.00
31346;BME280;21711;49.708;18.568;2023-02-01T11:04:04;96819.69;;;4.04;100.00
31346;BME280;21711;49.708;18.568;2023-02-01T11:06:38;96815.28;;;4.10;100.00
31346;BME280;21711;49.708;18.568;2023-02-01T11:09:16;96818.34;;;3.85;100.00
31346;BME280;21711;49.708;18.568;2023-02-01T11:16:59;96812.38;;;4.06;100.00
31346;BME280;21711;49.708;18.568;2023-02-01T11:19:28;96801.38;;;3.87;100.00
31346;BME280;21711;49.708;18.568;2023-02-01T11:21:59;96804.81;;;3.53;100.00
31346;BME280;21711;49.708;18.568;2023-02-01T11:24:35;96803.94;;;3.48;100.00
31346;BME280;21711;49.708;18.568;2023-02-01T11:27:06;96797.28;;;3.57;100.00
31346;BME280;21711;49.708;18.568;2023-02-01T11:29:52;96796.16;;;3.70;100.00
31346;BME280;21711;49.708;18.568;2023-02-01T11:32:22;96796.88;;;3.83;100.00
31346;BME280;21711;49.708;18.568;2023-02-01T11:37:33;96799.16;;;3.96;100.00
31346;BME280;21711;49.708;18.568;2023-02-01T11:43:01;96782.25;;;4.04;100.00
31346;BME280;21711;49.708;18.568;2023-02-01T11:45:34;96789.06;;;4.05;100.00
31346;BME280;21711;49.708;18.568;2023-02-01T11:48:10;96787.19;;;4.23;100.00
31346;BME280;21711;49.708;18.568;2023-02-01T11:56:48;96777.28;;;4.47;100.00
31346;BME280;21711;49.708;18.568;2023-02-01T11:59:49;96767.81;;;4.24;100.00
31346;BME280;21711;49.708;18.568;2023-02-01T12:18:16;96761.19;;;4.38;100.00
31346;BME280;21711;49.708;18.568;2023-02-01T12:21:17;96741.06;;;4.39;100.00
31346;BME280;21711;49.708;18.568;2023-02-01T12:27:35;96752.47;;;3.88;100.00
31346;BME280;21711;49.708;18.568;2023-02-01T12:36:27;96732.81;;;3.11;100.00
31346;BME280;21711;49.708;18.568;2023-02-01T12:39:27;96735.97;;;3.31;100.00
31346;BME280;21711;49.708;18.568;2023-02-01T12:45:36;96724.09;;;3.40;100.00
31346;BME280;21711;49.708;18.568;2023-02-01T12:51:17;96723.72;;;3.31;100.00
31346;BME280;21711;49.708;18.568;2023-02-01T12:57:31;96722.88;;;3.48;100.00
31346;BME280;21711;49.708;18.568;2023-02-01T13:00:19;96715.72;;;3.38;100.00
31346;BME280;21711;49.708;18.568;2023-02-01T13:11:35;96717.91;;;3.12;100.00
31346;BME280;21711;49.708;18.568;2023-02-01T13:16:57;96711.41;;;3.32;100.00
31346;BME280;21711;49.708;18.568;2023-02-01T13:20:00;96703.13;;;3.18;100.00
31346;BME280;21711;49.708;18.568;2023-02-01T13:22:42;96701.03;;;3.37;100.00
31346;BME280;21711;49.708;18.568;2023-02-01T13:28:19;96697.34;;;3.33;100.00
31346;BME280;21711;49.708;18.568;2023-02-01T13:35:06;96678.34;;;3.20;100.00
31346;BME280;21711;49.708;18.568;2023-02-01T13:40:39;96692.47;;;3.41;100.00
31346;BME280;21711;49.708;18.568;2023-02-01T13:43:38;96684.75;;;3.29;100.00
31346;BME280;21711;49.708;18.568;2023-02-01T13:46:10;96684.81;;;3.35;100.00
31346;BME280;21711;49.708;18.568;2023-02-01T13:48:57;96682.22;;;3.18;100.00
31346;BME280;21711;49.708;18.568;2023-02-01T13:51:45;96687.44;;;3.18;100.00
31346;BME280;21711;49.708;18.568;2023-02-01T13:54:38;96697.91;;;3.18;100.00
31346;BME280;21711;49.708;18.568;2023-02-01T14:00:26;96685.28;;;2.80;100.00
31346;BME280;21711;49.708;18.568;2023-02-01T14:13:36;96682.28;;;2.88;100.00
31346;BME280;21711;49.708;18.568;2023-02-01T14:26:27;96676.56;;;2.57;100.00
31346;BME280;21711;49.708;18.568;2023-02-01T14:37:36;96682.22;;;2.54;100.00
31346;BME280;21711;49.708;18.568;2023-02-01T14:50:47;96700.56;;;2.71;100.00
31346;BME280;21711;49.708;18.568;2023-02-01T14:53:27;96699.94;;;2.81;100.00
31346;BME280;21711;49.708;18.568;2023-02-01T14:56:13;96701.81;;;2.69;100.00
31346;BME280;21711;49.708;18.568;2023-02-01T14:59:07;96700.78;;;2.70;100.00
31346;BME280;21711;49.708;18.568;2023-02-01T15:01:50;96699.69;;;2.66;100.00
31346;BME280;21711;49.708;18.568;2023-02-01T15:04:19;96713.84;;;2.70;100.00
31346;BME280;21711;49.708;18.568;2023-02-01T15:07:07;96719.97;;;2.63;100.00
31346;BME280;21711;49.708;18.568;2023-02-01T15:09:46;96712.59;;;2.72;100.00
31346;BME280;21711;49.708;18.568;2023-02-01T15:12:23;96722.94;;;2.67;100.00
31346;BME280;21711;49.708;18.568;2023-02-01T15:18:03;96719.94;;;2.75;100.00
31346;BME280;21711;49.708;18.568;2023-02-01T15:20:32;96720.25;;;2.62;100.00
31346;BME280;21711;49.708;18.568;2023-02-01T15:23:06;96722.38;;;2.65;100.00
31346;BME280;21711;49.708;18.568;2023-02-01T15:25:46;96725.88;;;2.71;100.00
31346;BME280;21711;49.708;18.568;2023-02-01T15:28:15;96729.56;;;2.58;100.00
31346;BME280;21711;49.708;18.568;2023-02-01T15:33:26;96736.13;;;2.60;100.00
31346;BME280;21711;49.708;18.568;2023-02-01T15:36:10;96735.09;;;2.61;100.00
31346;BME280;21711;49.708;18.568;2023-02-01T15:38:41;96745.72;;;2.72;100.00
31346;BME280;21711;49.708;18.568;2023-02-01T15:41:20;96749.50;;;2.64;100.00
31346;BME280;21711;49.708;18.568;2023-02-01T15:46:36;96761.31;;;2.67;100.00
31346;BME280;21711;49.708;18.568;2023-02-01T15:49:12;96762.03;;;2.62;100.00
31346;BME280;21711;49.708;18.568;2023-02-01T15:51:46;96767.25;;;2.62;100.00
31346;BME280;21711;49.708;18.568;2023-02-01T15:54:20;96775.56;;;2.76;100.00
31346;BME280;21711;49.708;18.568;2023-02-01T15:56:53;96780.16;;;2.69;100.00
31346;BME280;21711;49.708;18.568;2023-02-01T15:59:40;96772.06;;;2.70;100.00
31346;BME280;21711;49.708;18.568;2023-02-01T16:03:00;96773.59;;;2.54;100.00
31346;BME280;21711;49.708;18.568;2023-02-01T16:05:42;96776.19;;;2.66;100.00
31346;BME280;21711;49.708;18.568;2023-02-01T16:08:15;96779.50;;;2.61;100.00
31346;BME280;21711;49.708;18.568;2023-02-01T16:10:46;96791.25;;;2.76;100.00
31346;BME280;21711;49.708;18.568;2023-02-01T16:13:17;96790.16;;;2.60;100.00
31346;BME280;21711;49.708;18.568;2023-02-01T16:15:44;96794.13;;;2.62;100.00
31346;BME280;21711;49.708;18.568;2023-02-01T16:18:13;96787.09;;;2.63;100.00
31346;BME280;21711;49.708;18.568;2023-02-01T16:20:44;96791.75;;;2.61;100.00
31346;BME280;21711;49.708;18.568;2023-02-01T16:23:12;96792.69;;;2.55;100.00